Pagrindinis puslapis
METAR-TAF:

METAR-TAF

Oro uostai :

Esmeraldasas, Ekvadoras

platuma: 00-58-43N, ilguma: 079-37-36W, Aukštis: 10 m

Dabartinis oras

Ataskaita buvo paskelbta 30 minutes, ne 23:00 UTC
Vėjas 10 kt iš Pietų/Pietvakarių
Temperatūra 26°C
Drėgmė 84%
Slėgis 1011 hPa
Matomumas 10 km arba daugiau
Išsisklaidę debesys ne aukštis 2600 ft
Su prošvaistėmis ne aukštis 10000 ft
Su prošvaistėmis ne aukštis 30000 ft

METAR: SETN 222300Z 21010KT 9999 SCT026 BKN100 BKN300 26/23 Q1010 A2984

Laikas: 18:30 (23:30 UTC)


TAF: trūkstamas

Orai ataskaitas ir orų prognozės (METAR, TAF).

turimą stotys yra geltonos ir raudonos taškus žemėlapyje.

Perkelti pele per norėdami pamatyti stoties vardą.

Tada spustelėkite, norėdami matyti oro stebėjimo ir prognozės.

Norėdami pakeisti žemėlapį: spustelėkite ant žalios mygtukų su juodo kryžiaus žemyn,; žalią mygtuką su brūkšneliu, jei norite nutolinti; arba žalių rodyklių gretimoms žemėlapius.


METAR-TAF: